sensor_id;sensor_type;location;lat;lon;timestamp;pressure;altitude;pressure_sealevel;temperature;humidity
51333;BME280;37417;48.118;11.734;2023-07-31T00:02:17;95621.59;;;16.89;100.00
51333;BME280;37417;48.118;11.734;2023-07-31T00:05:02;95612.66;;;16.90;100.00
51333;BME280;37417;48.118;11.734;2023-07-31T00:07:48;95613.69;;;16.89;100.00
51333;BME280;37417;48.118;11.734;2023-07-31T00:10:34;95608.28;;;16.84;100.00
51333;BME280;37417;48.118;11.734;2023-07-31T00:13:20;95611.50;;;16.74;100.00
51333;BME280;37417;48.118;11.734;2023-07-31T00:16:05;95607.59;;;16.65;100.00
51333;BME280;37417;48.118;11.734;2023-07-31T00:18:51;95603.47;;;16.57;100.00
51333;BME280;37417;48.118;11.734;2023-07-31T00:21:37;95599.34;;;16.49;100.00
51333;BME280;37417;48.118;11.734;2023-07-31T00:24:22;95603.19;;;16.35;100.00
51333;BME280;37417;48.118;11.734;2023-07-31T00:27:08;95606.38;;;16.14;100.00
51333;BME280;37417;48.118;11.734;2023-07-31T00:29:53;95603.41;;;16.10;100.00
51333;BME280;37417;48.118;11.734;2023-07-31T00:32:39;95608.88;;;16.09;100.00
51333;BME280;37417;48.118;11.734;2023-07-31T00:35:25;95616.44;;;16.05;100.00
51333;BME280;37417;48.118;11.734;2023-07-31T00:38:10;95609.44;;;15.99;100.00
51333;BME280;37417;48.118;11.734;2023-07-31T00:40:56;95610.25;;;16.00;100.00
51333;BME280;37417;48.118;11.734;2023-07-31T00:43:42;95611.28;;;15.98;100.00
51333;BME280;37417;48.118;11.734;2023-07-31T00:46:27;95604.03;;;15.94;100.00
51333;BME280;37417;48.118;11.734;2023-07-31T00:49:13;95603.91;;;15.89;100.00
51333;BME280;37417;48.118;11.734;2023-07-31T00:51:59;95609.16;;;15.89;100.00
51333;BME280;37417;48.118;11.734;2023-07-31T00:54:45;95601.16;;;15.84;100.00
51333;BME280;37417;48.118;11.734;2023-07-31T00:57:32;95602.88;;;15.90;100.00
51333;BME280;37417;48.118;11.734;2023-07-31T01:00:18;95591.00;;;15.87;100.00
51333;BME280;37417;48.118;11.734;2023-07-31T01:03:04;95599.69;;;15.88;100.00
51333;BME280;37417;48.118;11.734;2023-07-31T01:05:59;95594.00;;;15.91;100.00
51333;BME280;37417;48.118;11.734;2023-07-31T01:09:02;95589.81;;;15.83;100.00
51333;BME280;37417;48.118;11.734;2023-07-31T01:11:57;95590.94;;;15.76;100.00
51333;BME280;37417;48.118;11.734;2023-07-31T01:15:01;95584.66;;;15.77;100.00
51333;BME280;37417;48.118;11.734;2023-07-31T01:17:47;95578.59;;;15.76;100.00
51333;BME280;37417;48.118;11.734;2023-07-31T01:20:33;95576.56;;;15.78;100.00
51333;BME280;37417;48.118;11.734;2023-07-31T01:26:36;95578.41;;;15.89;100.00
51333;BME280;37417;48.118;11.734;2023-07-31T01:32:28;95570.81;;;16.11;100.00
51333;BME280;37417;48.118;11.734;2023-07-31T01:35:14;95562.00;;;16.17;100.00
51333;BME280;37417;48.118;11.734;2023-07-31T01:38:00;95561.28;;;16.22;100.00
51333;BME280;37417;48.118;11.734;2023-07-31T01:40:51;95555.94;;;16.29;100.00
51333;BME280;37417;48.118;11.734;2023-07-31T01:43:37;95549.31;;;16.26;100.00
51333;BME280;37417;48.118;11.734;2023-07-31T01:46:22;95558.91;;;16.32;100.00
51333;BME280;37417;48.118;11.734;2023-07-31T01:49:08;95557.09;;;16.33;100.00
51333;BME280;37417;48.118;11.734;2023-07-31T01:51:54;95548.94;;;16.34;100.00
51333;BME280;37417;48.118;11.734;2023-07-31T01:54:39;95551.59;;;16.34;100.00
51333;BME280;37417;48.118;11.734;2023-07-31T01:57:25;95544.47;;;16.35;100.00
51333;BME280;37417;48.118;11.734;2023-07-31T02:00:11;95545.75;;;16.20;100.00
51333;BME280;37417;48.118;11.734;2023-07-31T02:02:57;95549.28;;;16.14;100.00
51333;BME280;37417;48.118;11.734;2023-07-31T02:05:49;95560.16;;;16.18;100.00
51333;BME280;37417;48.118;11.734;2023-07-31T02:08:35;95552.59;;;16.10;100.00
51333;BME280;37417;48.118;11.734;2023-07-31T02:11:20;95550.41;;;16.07;100.00
51333;BME280;37417;48.118;11.734;2023-07-31T02:14:06;95548.34;;;16.09;100.00
51333;BME280;37417;48.118;11.734;2023-07-31T02:16:52;95552.13;;;16.01;100.00
51333;BME280;37417;48.118;11.734;2023-07-31T02:19:37;95551.09;;;16.02;100.00
51333;BME280;37417;48.118;11.734;2023-07-31T02:22:23;95544.69;;;15.98;100.00
51333;BME280;37417;48.118;11.734;2023-07-31T02:25:09;95533.16;;;15.99;100.00
51333;BME280;37417;48.118;11.734;2023-07-31T02:27:54;95531.41;;;15.93;100.00
51333;BME280;37417;48.118;11.734;2023-07-31T02:30:44;95527.41;;;16.02;100.00
51333;BME280;37417;48.118;11.734;2023-07-31T02:33:30;95536.31;;;15.89;100.00
51333;BME280;37417;48.118;11.734;2023-07-31T02:36:16;95524.97;;;15.77;100.00
51333;BME280;37417;48.118;11.734;2023-07-31T02:39:01;95531.50;;;15.75;100.00
51333;BME280;37417;48.118;11.734;2023-07-31T02:41:47;95530.66;;;15.62;100.00
51333;BME280;37417;48.118;11.734;2023-07-31T02:44:33;95525.81;;;15.59;100.00
51333;BME280;37417;48.118;11.734;2023-07-31T02:47:18;95517.88;;;15.66;100.00
51333;BME280;37417;48.118;11.734;2023-07-31T02:50:04;95531.09;;;15.59;100.00
51333;BME280;37417;48.118;11.734;2023-07-31T02:52:50;95526.72;;;15.53;100.00
51333;BME280;37417;48.118;11.734;2023-07-31T02:55:36;95513.66;;;15.47;100.00
51333;BME280;37417;48.118;11.734;2023-07-31T02:58:21;95519.31;;;15.32;100.00
51333;BME280;37417;48.118;11.734;2023-07-31T03:01:07;95523.44;;;15.28;100.00
51333;BME280;37417;48.118;11.734;2023-07-31T03:03:53;95529.19;;;15.18;100.00
51333;BME280;37417;48.118;11.734;2023-07-31T03:06:38;95526.22;;;15.14;100.00
51333;BME280;37417;48.118;11.734;2023-07-31T03:09:24;95525.50;;;15.07;100.00
51333;BME280;37417;48.118;11.734;2023-07-31T03:12:10;95528.22;;;15.01;100.00
51333;BME280;37417;48.118;11.734;2023-07-31T03:14:55;95528.41;;;14.99;100.00
51333;BME280;37417;48.118;11.734;2023-07-31T03:17:41;95539.72;;;15.00;100.00
51333;BME280;37417;48.118;11.734;2023-07-31T03:20:27;95524.72;;;14.88;100.00
51333;BME280;37417;48.118;11.734;2023-07-31T03:23:12;95521.22;;;14.95;100.00
51333;BME280;37417;48.118;11.734;2023-07-31T03:25:59;95517.41;;;14.90;100.00
51333;BME280;37417;48.118;11.734;2023-07-31T03:28:45;95523.47;;;14.91;100.00
51333;BME280;37417;48.118;11.734;2023-07-31T03:31:31;95519.25;;;14.90;100.00
51333;BME280;37417;48.118;11.734;2023-07-31T03:34:17;95520.78;;;14.79;100.00
51333;BME280;37417;48.118;11.734;2023-07-31T03:37:02;95528.38;;;14.69;100.00
51333;BME280;37417;48.118;11.734;2023-07-31T03:39:50;95539.16;;;14.61;100.00
51333;BME280;37417;48.118;11.734;2023-07-31T03:42:35;95541.78;;;14.61;100.00
51333;BME280;37417;48.118;11.734;2023-07-31T03:45:21;95543.81;;;14.59;100.00
51333;BME280;37417;48.118;11.734;2023-07-31T03:48:07;95551.63;;;14.66;100.00
51333;BME280;37417;48.118;11.734;2023-07-31T03:50:54;95550.81;;;14.65;100.00
51333;BME280;37417;48.118;11.734;2023-07-31T03:53:40;95549.00;;;14.66;100.00
51333;BME280;37417;48.118;11.734;2023-07-31T03:56:26;95551.22;;;14.69;100.00
51333;BME280;37417;48.118;11.734;2023-07-31T03:59:12;95554.75;;;14.74;100.00
51333;BME280;37417;48.118;11.734;2023-07-31T04:01:57;95552.50;;;14.78;100.00
51333;BME280;37417;48.118;11.734;2023-07-31T04:04:43;95546.81;;;14.81;100.00
51333;BME280;37417;48.118;11.734;2023-07-31T04:07:28;95542.88;;;14.90;100.00
51333;BME280;37417;48.118;11.734;2023-07-31T04:10:14;95544.25;;;14.93;100.00
51333;BME280;37417;48.118;11.734;2023-07-31T04:13:00;95536.22;;;14.87;100.00
51333;BME280;37417;48.118;11.734;2023-07-31T04:15:49;95540.03;;;14.92;100.00
51333;BME280;37417;48.118;11.734;2023-07-31T04:18:37;95536.38;;;14.93;100.00
51333;BME280;37417;48.118;11.734;2023-07-31T04:21:22;95542.00;;;14.96;100.00
51333;BME280;37417;48.118;11.734;2023-07-31T04:24:08;95538.13;;;14.99;100.00
51333;BME280;37417;48.118;11.734;2023-07-31T04:26:54;95537.25;;;15.05;100.00
51333;BME280;37417;48.118;11.734;2023-07-31T04:29:39;95536.59;;;15.09;100.00
51333;BME280;37417;48.118;11.734;2023-07-31T04:32:27;95537.75;;;15.13;100.00
51333;BME280;37417;48.118;11.734;2023-07-31T04:35:14;95532.69;;;15.30;100.00
51333;BME280;37417;48.118;11.734;2023-07-31T04:38:00;95518.31;;;15.33;100.00
51333;BME280;37417;48.118;11.734;2023-07-31T04:40:45;95523.59;;;15.44;100.00
51333;BME280;37417;48.118;11.734;2023-07-31T04:43:31;95516.63;;;15.50;100.00
51333;BME280;37417;48.118;11.734;2023-07-31T04:46:17;95512.25;;;15.62;100.00
51333;BME280;37417;48.118;11.734;2023-07-31T04:49:02;95513.13;;;15.56;100.00
51333;BME280;37417;48.118;11.734;2023-07-31T04:51:48;95512.03;;;15.45;100.00
51333;BME280;37417;48.118;11.734;2023-07-31T04:54:34;95515.88;;;15.61;100.00
51333;BME280;37417;48.118;11.734;2023-07-31T04:57:20;95513.69;;;15.58;100.00
51333;BME280;37417;48.118;11.734;2023-07-31T05:00:06;95508.38;;;15.65;100.00
51333;BME280;37417;48.118;11.734;2023-07-31T05:02:52;95508.41;;;15.58;100.00
51333;BME280;37417;48.118;11.734;2023-07-31T05:05:37;95509.44;;;15.57;100.00
51333;BME280;37417;48.118;11.734;2023-07-31T05:08:23;95512.72;;;15.71;100.00
51333;BME280;37417;48.118;11.734;2023-07-31T05:11:09;95520.19;;;15.86;100.00
51333;BME280;37417;48.118;11.734;2023-07-31T05:13:54;95512.53;;;16.55;100.00
51333;BME280;37417;48.118;11.734;2023-07-31T05:16:40;95483.84;;;17.50;100.00
51333;BME280;37417;48.118;11.734;2023-07-31T05:19:25;95481.66;;;18.26;100.00
51333;BME280;37417;48.118;11.734;2023-07-31T05:22:11;95479.66;;;18.72;100.00
51333;BME280;37417;48.118;11.734;2023-07-31T05:24:57;95483.56;;;19.35;100.00
51333;BME280;37417;48.118;11.734;2023-07-31T05:27:42;95479.09;;;19.63;100.00
51333;BME280;37417;48.118;11.734;2023-07-31T05:30:30;95483.13;;;20.02;100.00
51333;BME280;37417;48.118;11.734;2023-07-31T05:33:16;95479.78;;;20.54;100.00
51333;BME280;37417;48.118;11.734;2023-07-31T05:36:02;95478.31;;;20.74;95.60
51333;BME280;37417;48.118;11.734;2023-07-31T05:38:47;95479.81;;;20.60;94.68
51333;BME280;37417;48.118;11.734;2023-07-31T05:41:33;95462.94;;;19.96;99.63
51333;BME280;37417;48.118;11.734;2023-07-31T05:44:18;95482.28;;;19.65;100.00
51333;BME280;37417;48.118;11.734;2023-07-31T05:47:04;95472.44;;;19.33;100.00
51333;BME280;37417;48.118;11.734;2023-07-31T05:49:50;95471.84;;;19.53;100.00
51333;BME280;37417;48.118;11.734;2023-07-31T05:52:38;95472.72;;;19.37;100.00
51333;BME280;37417;48.118;11.734;2023-07-31T05:55:24;95468.63;;;19.51;100.00
51333;BME280;37417;48.118;11.734;2023-07-31T05:58:12;95472.16;;;19.08;100.00
51333;BME280;37417;48.118;11.734;2023-07-31T06:00:57;95473.78;;;19.36;100.00
51333;BME280;37417;48.118;11.734;2023-07-31T06:03:43;95467.94;;;19.34;100.00
51333;BME280;37417;48.118;11.734;2023-07-31T06:06:29;95464.53;;;19.38;100.00
51333;BME280;37417;48.118;11.734;2023-07-31T06:09:15;95463.78;;;19.16;100.00
51333;BME280;37417;48.118;11.734;2023-07-31T06:12:00;95470.25;;;19.52;100.00
51333;BME280;37417;48.118;11.734;2023-07-31T06:14:46;95462.94;;;19.91;100.00
51333;BME280;37417;48.118;11.734;2023-07-31T06:17:32;95463.38;;;20.20;100.00
51333;BME280;37417;48.118;11.734;2023-07-31T06:20:17;95466.06;;;20.63;96.41
51333;BME280;37417;48.118;11.734;2023-07-31T06:23:03;95468.75;;;20.31;95.76
51333;BME280;37417;48.118;11.734;2023-07-31T06:25:49;95471.81;;;20.49;94.39
51333;BME280;37417;48.118;11.734;2023-07-31T06:28:34;95481.56;;;19.74;99.44
51333;BME280;37417;48.118;11.734;2023-07-31T06:31:20;95485.28;;;20.48;94.96
51333;BME280;37417;48.118;11.734;2023-07-31T06:34:08;95486.59;;;20.08;99.11
51333;BME280;37417;48.118;11.734;2023-07-31T06:36:55;95492.09;;;19.69;100.00
51333;BME280;37417;48.118;11.734;2023-07-31T06:39:41;95482.97;;;20.19;96.02
51333;BME280;37417;48.118;11.734;2023-07-31T06:42:26;95480.81;;;20.48;96.14
51333;BME280;37417;48.118;11.734;2023-07-31T06:45:12;95480.38;;;19.33;97.22
51333;BME280;37417;48.118;11.734;2023-07-31T06:47:58;95483.47;;;19.52;100.00
51333;BME280;37417;48.118;11.734;2023-07-31T06:50:46;95477.66;;;19.82;98.39
51333;BME280;37417;48.118;11.734;2023-07-31T06:53:32;95471.94;;;19.95;96.27
51333;BME280;37417;48.118;11.734;2023-07-31T06:56:18;95483.94;;;19.49;100.00
51333;BME280;37417;48.118;11.734;2023-07-31T06:59:03;95477.16;;;19.31;100.00
51333;BME280;37417;48.118;11.734;2023-07-31T07:01:49;95478.91;;;19.20;100.00
51333;BME280;37417;48.118;11.734;2023-07-31T07:04:35;95460.78;;;19.88;98.41
51333;BME280;37417;48.118;11.734;2023-07-31T07:07:21;95457.59;;;20.23;94.31
51333;BME280;37417;48.118;11.734;2023-07-31T07:10:07;95456.41;;;20.04;95.89
51333;BME280;37417;48.118;11.734;2023-07-31T07:12:53;95449.41;;;20.30;90.77
51333;BME280;37417;48.118;11.734;2023-07-31T07:15:40;95457.81;;;20.17;93.45
51333;BME280;37417;48.118;11.734;2023-07-31T07:18:26;95463.00;;;20.44;93.29
51333;BME280;37417;48.118;11.734;2023-07-31T07:21:12;95452.81;;;19.88;95.99
51333;BME280;37417;48.118;11.734;2023-07-31T07:24:01;95457.00;;;19.25;99.23
51333;BME280;37417;48.118;11.734;2023-07-31T07:26:46;95449.66;;;19.05;100.00
51333;BME280;37417;48.118;11.734;2023-07-31T07:29:34;95465.94;;;19.46;99.50
51333;BME280;37417;48.118;11.734;2023-07-31T07:32:20;95461.00;;;20.19;97.33
51333;BME280;37417;48.118;11.734;2023-07-31T07:35:06;95454.66;;;20.62;88.39
51333;BME280;37417;48.118;11.734;2023-07-31T07:37:52;95453.84;;;20.62;89.02
51333;BME280;37417;48.118;11.734;2023-07-31T07:40:39;95448.16;;;21.05;86.65
51333;BME280;37417;48.118;11.734;2023-07-31T07:43:25;95461.41;;;20.95;88.28
51333;BME280;37417;48.118;11.734;2023-07-31T07:46:10;95452.88;;;20.83;81.94
51333;BME280;37417;48.118;11.734;2023-07-31T07:48:57;95450.72;;;20.75;85.18
51333;BME280;37417;48.118;11.734;2023-07-31T07:51:42;95448.50;;;20.51;87.63
51333;BME280;37417;48.118;11.734;2023-07-31T07:54:28;95441.41;;;21.81;77.95
51333;BME280;37417;48.118;11.734;2023-07-31T07:57:14;95433.47;;;21.71;72.41
51333;BME280;37417;48.118;11.734;2023-07-31T07:59:59;95439.72;;;21.14;79.16
51333;BME280;37417;48.118;11.734;2023-07-31T08:02:46;95411.25;;;23.27;65.01
51333;BME280;37417;48.118;11.734;2023-07-31T08:05:31;95404.00;;;22.88;65.44
51333;BME280;37417;48.118;11.734;2023-07-31T08:08:19;95413.47;;;22.39;64.50
51333;BME280;37417;48.118;11.734;2023-07-31T08:11:06;95412.78;;;22.88;62.69
51333;BME280;37417;48.118;11.734;2023-07-31T08:13:52;95405.16;;;22.61;63.36
51333;BME280;37417;48.118;11.734;2023-07-31T08:16:38;95403.56;;;23.59;59.16
51333;BME280;37417;48.118;11.734;2023-07-31T08:19:24;95400.53;;;24.05;57.56
51333;BME280;37417;48.118;11.734;2023-07-31T08:22:09;95375.47;;;23.38;59.41
51333;BME280;37417;48.118;11.734;2023-07-31T08:24:55;95409.56;;;23.75;56.51
51333;BME280;37417;48.118;11.734;2023-07-31T08:27:43;95408.81;;;23.69;60.40
51333;BME280;37417;48.118;11.734;2023-07-31T08:30:29;95416.41;;;25.30;53.76
51333;BME280;37417;48.118;11.734;2023-07-31T08:33:15;95414.22;;;24.94;53.77
51333;BME280;37417;48.118;11.734;2023-07-31T08:36:02;95388.06;;;24.24;53.58
51333;BME280;37417;48.118;11.734;2023-07-31T08:38:47;95400.44;;;22.43;61.24
51333;BME280;37417;48.118;11.734;2023-07-31T08:41:39;95410.69;;;23.30;58.85
51333;BME280;37417;48.118;11.734;2023-07-31T08:44:25;95411.38;;;22.01;63.38
51333;BME280;37417;48.118;11.734;2023-07-31T08:47:11;95405.03;;;22.22;66.63
51333;BME280;37417;48.118;11.734;2023-07-31T08:49:58;95410.59;;;21.49;68.44
51333;BME280;37417;48.118;11.734;2023-07-31T08:52:49;95401.25;;;21.01;67.63
51333;BME280;37417;48.118;11.734;2023-07-31T08:55:36;95410.63;;;21.54;72.86
51333;BME280;37417;48.118;11.734;2023-07-31T08:58:23;95409.56;;;21.55;71.87
51333;BME280;37417;48.118;11.734;2023-07-31T09:01:09;95400.53;;;21.67;75.23
51333;BME280;37417;48.118;11.734;2023-07-31T09:03:57;95411.81;;;20.91;71.95
51333;BME280;37417;48.118;11.734;2023-07-31T09:06:45;95412.03;;;20.79;76.09
51333;BME280;37417;48.118;11.734;2023-07-31T09:09:32;95399.09;;;20.88;72.53
51333;BME280;37417;48.118;11.734;2023-07-31T09:12:18;95399.88;;;20.98;75.25
51333;BME280;37417;48.118;11.734;2023-07-31T09:15:05;95409.28;;;21.36;78.81
51333;BME280;37417;48.118;11.734;2023-07-31T09:17:59;95415.94;;;21.39;73.44
51333;BME280;37417;48.118;11.734;2023-07-31T09:21:00;95401.34;;;21.52;70.97
51333;BME280;37417;48.118;11.734;2023-07-31T09:23:47;95398.94;;;22.11;67.58
51333;BME280;37417;48.118;11.734;2023-07-31T09:26:41;95395.69;;;22.35;68.75
51333;BME280;37417;48.118;11.734;2023-07-31T09:29:28;95396.41;;;22.56;65.58
51333;BME280;37417;48.118;11.734;2023-07-31T09:32:18;95392.28;;;22.89;65.66
51333;BME280;37417;48.118;11.734;2023-07-31T09:35:27;95380.19;;;22.57;65.11
51333;BME280;37417;48.118;11.734;2023-07-31T09:38:14;95378.56;;;23.16;62.12
51333;BME280;37417;48.118;11.734;2023-07-31T09:41:00;95383.97;;;23.06;63.02
51333;BME280;37417;48.118;11.734;2023-07-31T09:43:53;95385.56;;;23.46;62.67
51333;BME280;37417;48.118;11.734;2023-07-31T09:46:39;95383.13;;;22.56;60.55
51333;BME280;37417;48.118;11.734;2023-07-31T09:49:25;95382.75;;;24.24;59.45
51333;BME280;37417;48.118;11.734;2023-07-31T09:52:11;95372.78;;;23.43;60.68
51333;BME280;37417;48.118;11.734;2023-07-31T09:54:57;95364.44;;;23.20;62.52
51333;BME280;37417;48.118;11.734;2023-07-31T09:57:48;95371.63;;;22.65;59.65
51333;BME280;37417;48.118;11.734;2023-07-31T10:00:34;95369.50;;;23.17;56.95
51333;BME280;37417;48.118;11.734;2023-07-31T10:03:21;95353.56;;;23.51;57.97
51333;BME280;37417;48.118;11.734;2023-07-31T10:06:09;95345.41;;;24.24;58.88
51333;BME280;37417;48.118;11.734;2023-07-31T10:08:56;95345.13;;;25.11;54.11
51333;BME280;37417;48.118;11.734;2023-07-31T10:11:46;95333.78;;;25.57;53.21
51333;BME280;37417;48.118;11.734;2023-07-31T10:14:36;95326.72;;;25.80;50.21
51333;BME280;37417;48.118;11.734;2023-07-31T10:17:25;95322.22;;;26.22;47.05
51333;BME280;37417;48.118;11.734;2023-07-31T10:20:11;95325.53;;;25.21;48.71
51333;BME280;37417;48.118;11.734;2023-07-31T10:22:57;95325.91;;;23.47;52.84
51333;BME280;37417;48.118;11.734;2023-07-31T10:25:45;95315.97;;;22.35;55.09
51333;BME280;37417;48.118;11.734;2023-07-31T10:28:32;95317.38;;;22.66;54.30
51333;BME280;37417;48.118;11.734;2023-07-31T10:31:19;95303.34;;;23.05;54.42
51333;BME280;37417;48.118;11.734;2023-07-31T10:34:05;95292.78;;;25.48;51.15
51333;BME280;37417;48.118;11.734;2023-07-31T10:37:30;95284.84;;;26.94;48.03
51333;BME280;37417;48.118;11.734;2023-07-31T10:40:27;95291.09;;;26.54;45.74
51333;BME280;37417;48.118;11.734;2023-07-31T10:43:24;95287.75;;;26.34;47.16
51333;BME280;37417;48.118;11.734;2023-07-31T10:46:13;95282.25;;;25.71;48.11
51333;BME280;37417;48.118;11.734;2023-07-31T10:49:01;95286.75;;;26.03;45.36
51333;BME280;37417;48.118;11.734;2023-07-31T10:51:47;95290.03;;;23.97;48.37
51333;BME280;37417;48.118;11.734;2023-07-31T10:54:33;95283.47;;;24.56;48.83
51333;BME280;37417;48.118;11.734;2023-07-31T10:57:22;95289.28;;;24.40;48.94
51333;BME280;37417;48.118;11.734;2023-07-31T11:00:30;95284.28;;;23.61;48.07
51333;BME280;37417;48.118;11.734;2023-07-31T11:03:20;95298.63;;;22.92;51.35
51333;BME280;37417;48.118;11.734;2023-07-31T11:06:09;95283.72;;;23.64;51.21
51333;BME280;37417;48.118;11.734;2023-07-31T11:08:56;95284.28;;;23.27;51.45
51333;BME280;37417;48.118;11.734;2023-07-31T11:11:44;95273.03;;;23.35;51.41
51333;BME280;37417;48.118;11.734;2023-07-31T11:14:29;95279.56;;;24.25;51.54
51333;BME280;37417;48.118;11.734;2023-07-31T11:17:15;95258.97;;;24.54;46.76
51333;BME280;37417;48.118;11.734;2023-07-31T11:20:01;95258.28;;;25.52;46.47
51333;BME280;37417;48.118;11.734;2023-07-31T11:22:47;95247.34;;;25.81;44.08
51333;BME280;37417;48.118;11.734;2023-07-31T11:25:33;95247.47;;;24.92;44.97
51333;BME280;37417;48.118;11.734;2023-07-31T11:28:19;95251.84;;;25.53;45.13
51333;BME280;37417;48.118;11.734;2023-07-31T11:31:08;95260.03;;;25.10;46.54
51333;BME280;37417;48.118;11.734;2023-07-31T11:34:07;95256.41;;;25.66;45.77
51333;BME280;37417;48.118;11.734;2023-07-31T11:36:54;95246.13;;;26.78;42.85
51333;BME280;37417;48.118;11.734;2023-07-31T11:39:40;95236.00;;;26.66;44.18
51333;BME280;37417;48.118;11.734;2023-07-31T11:42:26;95242.38;;;26.29;44.25
51333;BME280;37417;48.118;11.734;2023-07-31T11:45:12;95227.84;;;25.80;44.57
51333;BME280;37417;48.118;11.734;2023-07-31T11:47:58;95239.22;;;25.86;44.24
51333;BME280;37417;48.118;11.734;2023-07-31T11:50:44;95229.25;;;24.80;45.75
51333;BME280;37417;48.118;11.734;2023-07-31T11:53:44;95223.56;;;26.20;46.24
51333;BME280;37417;48.118;11.734;2023-07-31T11:56:31;95225.03;;;28.15;42.96
51333;BME280;37417;48.118;11.734;2023-07-31T11:59:17;95197.59;;;29.22;38.63
51333;BME280;37417;48.118;11.734;2023-07-31T12:02:03;95197.94;;;27.45;41.81
51333;BME280;37417;48.118;11.734;2023-07-31T12:04:49;95193.03;;;26.49;41.41
51333;BME280;37417;48.118;11.734;2023-07-31T12:07:49;95182.91;;;29.19;38.90
51333;BME280;37417;48.118;11.734;2023-07-31T12:10:35;95181.84;;;28.42;38.68
51333;BME280;37417;48.118;11.734;2023-07-31T12:13:22;95179.19;;;27.85;39.07
51333;BME280;37417;48.118;11.734;2023-07-31T12:16:08;95175.00;;;27.31;41.31
51333;BME280;37417;48.118;11.734;2023-07-31T12:18:54;95172.44;;;26.94;41.73
51333;BME280;37417;48.118;11.734;2023-07-31T12:21:40;95176.75;;;26.09;41.58
51333;BME280;37417;48.118;11.734;2023-07-31T12:24:26;95166.91;;;24.76;42.95
51333;BME280;37417;48.118;11.734;2023-07-31T12:27:13;95156.47;;;25.53;43.56
51333;BME280;37417;48.118;11.734;2023-07-31T12:30:00;95161.03;;;26.44;42.23
51333;BME280;37417;48.118;11.734;2023-07-31T12:32:45;95155.75;;;27.60;40.26
51333;BME280;37417;48.118;11.734;2023-07-31T12:35:36;95156.91;;;28.33;37.48
51333;BME280;37417;48.118;11.734;2023-07-31T12:38:22;95130.84;;;29.41;35.80
51333;BME280;37417;48.118;11.734;2023-07-31T12:41:08;95141.56;;;27.19;40.43
51333;BME280;37417;48.118;11.734;2023-07-31T12:43:55;95135.75;;;27.57;39.54
51333;BME280;37417;48.118;11.734;2023-07-31T12:46:41;95128.22;;;27.28;40.10
51333;BME280;37417;48.118;11.734;2023-07-31T12:49:26;95134.69;;;26.37;40.62
51333;BME280;37417;48.118;11.734;2023-07-31T12:52:12;95125.94;;;26.90;39.67
51333;BME280;37417;48.118;11.734;2023-07-31T12:54:58;95120.41;;;27.49;39.07
51333;BME280;37417;48.118;11.734;2023-07-31T12:57:43;95127.28;;;26.34;41.16
51333;BME280;37417;48.118;11.734;2023-07-31T13:00:29;95118.63;;;27.36;39.80
51333;BME280;37417;48.118;11.734;2023-07-31T13:03:15;95110.94;;;28.78;38.62
51333;BME280;37417;48.118;11.734;2023-07-31T13:06:01;95105.28;;;28.62;36.25
51333;BME280;37417;48.118;11.734;2023-07-31T13:08:47;95107.75;;;29.02;36.37
51333;BME280;37417;48.118;11.734;2023-07-31T13:11:32;95107.19;;;28.53;37.17
51333;BME280;37417;48.118;11.734;2023-07-31T13:14:18;95108.53;;;27.72;37.21
51333;BME280;37417;48.118;11.734;2023-07-31T13:17:04;95089.88;;;29.14;35.51
51333;BME280;37417;48.118;11.734;2023-07-31T13:19:49;95089.50;;;28.09;39.57
51333;BME280;37417;48.118;11.734;2023-07-31T13:22:35;95107.72;;;26.70;40.73
51333;BME280;37417;48.118;11.734;2023-07-31T13:25:21;95106.44;;;29.17;37.42
51333;BME280;37417;48.118;11.734;2023-07-31T13:28:06;95109.66;;;27.32;38.32
51333;BME280;37417;48.118;11.734;2023-07-31T13:30:52;95085.44;;;28.37;36.47
51333;BME280;37417;48.118;11.734;2023-07-31T13:33:38;95080.19;;;29.90;36.80
51333;BME280;37417;48.118;11.734;2023-07-31T13:36:24;95079.50;;;30.23;33.91
51333;BME280;37417;48.118;11.734;2023-07-31T13:39:09;95089.16;;;27.84;35.94
51333;BME280;37417;48.118;11.734;2023-07-31T13:41:55;95102.88;;;25.36;40.60
51333;BME280;37417;48.118;11.734;2023-07-31T13:44:41;95101.63;;;26.33;39.71
51333;BME280;37417;48.118;11.734;2023-07-31T13:47:27;95086.66;;;26.32;39.74
51333;BME280;37417;48.118;11.734;2023-07-31T13:50:16;95086.06;;;26.80;39.95
51333;BME280;37417;48.118;11.734;2023-07-31T13:53:09;95062.22;;;28.06;37.01
51333;BME280;37417;48.118;11.734;2023-07-31T13:55:56;95074.38;;;26.98;39.12
51333;BME280;37417;48.118;11.734;2023-07-31T13:58:44;95074.84;;;28.15;37.34
51333;BME280;37417;48.118;11.734;2023-07-31T14:01:31;95064.94;;;27.49;37.00
51333;BME280;37417;48.118;11.734;2023-07-31T14:04:17;95068.81;;;27.26;38.39
51333;BME280;37417;48.118;11.734;2023-07-31T14:07:05;95070.00;;;26.49;39.96
51333;BME280;37417;48.118;11.734;2023-07-31T14:09:51;95050.69;;;28.49;37.67
51333;BME280;37417;48.118;11.734;2023-07-31T14:12:36;95055.56;;;28.56;36.30
51333;BME280;37417;48.118;11.734;2023-07-31T14:15:22;95048.59;;;27.60;38.59
51333;BME280;37417;48.118;11.734;2023-07-31T14:18:08;95046.13;;;29.94;37.73
51333;BME280;37417;48.118;11.734;2023-07-31T14:20:54;95043.84;;;30.05;34.59
51333;BME280;37417;48.118;11.734;2023-07-31T14:23:40;95044.50;;;30.23;34.52
51333;BME280;37417;48.118;11.734;2023-07-31T14:26:26;95046.53;;;28.69;36.71
51333;BME280;37417;48.118;11.734;2023-07-31T14:29:12;95053.03;;;27.16;39.04
51333;BME280;37417;48.118;11.734;2023-07-31T14:31:58;95053.06;;;26.17;39.33
51333;BME280;37417;48.118;11.734;2023-07-31T14:34:45;95042.97;;;26.59;38.46